»·PEaware :: DLH401 KBOS-EDDF

DLH401 :: KBOS-EDDF

FLIGHT INFORMATION

Flight Status: Arrived
Operator:
Lufthansa
More flights by this operator :: More flights under this callsign
Pilot: Cullen C. (7783)
Aircraft: BOEING 747-400 (WINGLETS)
(B744)
More flights by this aircraft type
Origin: KBOS Logan Intl
United States
Destination: EDDF Frankfurt/Main
Germany
More flights between these airports :: More routes between these airports
Route: EBONY N555A NEEKO/M085F350 NATX KESIX/M085F370 IBROD/N0479F370 UMBEL LAMSO UL603 SOGPO UT149 OTSOP T149 LIPMI T150 ROLIS ROLI2H
File this flight plan on PilotEdge
Remarks:
Altitude:
(Current/Filed)
35,000ft
Speed:
(Current/Filed)
485kts
Departed: 02-Dec-17 05:42 PM
Arrived: 03-Dec-17 12:03 AM
Distance/Time
Traveled:
3177nm/6:21
Distance/Time
To Go:
Arrived

Flight Plot

Page will automatically refresh every two minutes.

Flight plan parsing failed; only flown route is shown


Map Options




Map Legend


Flown Route
Filed Route
Departure Airport
Arrival Airport
Navaid (VOR, NDB)
Fix

Horizontal Profiles

Position Reports

Time Latitude Longitude Heading Altitude Ground
Speed
02-Dec-17 17:01 42.369809 -71.017040 289 21ft 0kts
02-Dec-17 17:02 42.369809 -71.017040 289 21ft 0kts
02-Dec-17 17:03 42.369809 -71.017040 289 21ft 0kts
02-Dec-17 17:04 42.369809 -71.017040 289 21ft 0kts
02-Dec-17 17:05 42.369809 -71.017040 289 21ft 0kts
02-Dec-17 17:06 42.369809 -71.017040 289 21ft 0kts
02-Dec-17 17:07 42.369809 -71.017040 289 21ft 0kts
02-Dec-17 17:08 42.369809 -71.017040 289 21ft 0kts
02-Dec-17 17:09 42.369809 -71.017040 289 21ft 0kts
02-Dec-17 17:10 42.369809 -71.017040 289 21ft 0kts
02-Dec-17 17:11 42.369809 -71.017040 289 21ft 0kts
02-Dec-17 17:12 42.369809 -71.017040 289 21ft 0kts
02-Dec-17 17:13 42.369809 -71.017040 289 21ft 0kts
02-Dec-17 17:14 42.369809 -71.017040 289 21ft 0kts
02-Dec-17 17:15 42.369809 -71.017040 289 21ft 0kts
02-Dec-17 17:16 42.369809 -71.017040 289 21ft 0kts
02-Dec-17 17:17 42.369809 -71.017040 289 21ft 0kts
02-Dec-17 17:18 42.369809 -71.017040 289 21ft 0kts
02-Dec-17 17:19 42.369809 -71.017040 289 21ft 0kts
02-Dec-17 17:20 42.369809 -71.017040 289 21ft 0kts
02-Dec-17 17:21 42.369809 -71.017040 289 21ft 0kts
02-Dec-17 17:22 42.369809 -71.017040 289 21ft 0kts
02-Dec-17 17:23 42.369809 -71.017040 289 21ft 0kts
02-Dec-17 17:24 42.369809 -71.017040 289 21ft 0kts
02-Dec-17 17:25 42.369809 -71.017040 289 21ft 0kts
02-Dec-17 17:26 42.369809 -71.017040 289 21ft 0kts
02-Dec-17 17:27 42.369809 -71.017040 289 21ft 0kts
02-Dec-17 17:28 42.369809 -71.017040 289 21ft 0kts
02-Dec-17 17:29 42.369808 -71.017040 289 21ft 0kts
02-Dec-17 17:30 42.369704 -71.016397 254 21ft 2kts
02-Dec-17 17:31 42.370142 -71.015945 175 21ft 2kts
02-Dec-17 17:32 42.370540 -71.016307 132 21ft 0kts
02-Dec-17 17:33 42.370534 -71.016299 132 21ft 0kts
02-Dec-17 17:34 42.370512 -71.016265 132 21ft 0kts
02-Dec-17 17:35 42.369549 -71.014875 134 21ft 10kts
02-Dec-17 17:36 42.366669 -71.012575 193 21ft 15kts
02-Dec-17 17:37 42.361967 -71.014978 198 21ft 20kts
02-Dec-17 17:38 42.357463 -71.016183 189 21ft 14kts
02-Dec-17 17:39 42.353546 -71.014996 125 21ft 17kts
02-Dec-17 17:40 42.352664 -71.013336 125 21ft 0kts
02-Dec-17 17:41 42.352664 -71.013336 125 21ft 0kts
02-Dec-17 17:42 42.352664 -71.013336 125 21ft 0kts
02-Dec-17 17:43 42.352012 -71.011753 88 21ft 11kts
02-Dec-17 17:44 42.352524 -71.011095 18 21ft 0kts
02-Dec-17 17:45 42.352524 -71.011095 18 21ft 0kts
02-Dec-17 17:46 42.352524 -71.011095 18 21ft 0kts
02-Dec-17 17:47 42.356588 -71.009091 19 21ft 104kts
02-Dec-17 17:48 42.393093 -70.976238 48 1558ft 193kts
02-Dec-17 17:49 42.430400 -70.916812 48 2754ft 237kts
02-Dec-17 17:50 42.477133 -70.845960 47 4973ft 265kts
02-Dec-17 17:51 42.527258 -70.772399 46 7876ft 270kts
02-Dec-17 17:52 42.579482 -70.696850 42 10200ft 290kts
02-Dec-17 17:53 42.642294 -70.606938 44 10692ft 379kts
02-Dec-17 17:54 42.718963 -70.496145 44 12787ft 417kts
02-Dec-17 17:55 42.799517 -70.379388 44 15317ft 434kts
02-Dec-17 17:56 42.883162 -70.257210 44 17642ft 450kts
02-Dec-17 17:57 42.969668 -70.130055 43 19685ft 467kts
02-Dec-17 17:58 43.059651 -69.998209 43 21584ft 483kts
02-Dec-17 17:59 43.152191 -69.862816 43 23358ft 498kts
02-Dec-17 18:00 43.247752 -69.723318 43 25020ft 513kts
02-Dec-17 18:01 43.345768 -69.577908 44 26603ft 527kts
02-Dec-17 18:02 43.446213 -69.427673 44 28145ft 542kts
02-Dec-17 18:03 43.529095 -69.303022 45 29520ft 549kts
02-Dec-17 18:04 43.630873 -69.147894 45 31397ft 549kts
02-Dec-17 18:05 43.750475 -68.966074 45 33240ft 549kts
02-Dec-17 18:06 43.835823 -68.836057 45 34386ft 549kts
02-Dec-17 18:07 43.953824 -68.655100 44 34984ft 544kts
02-Dec-17 18:08 44.037903 -68.525409 44 35011ft 544kts
02-Dec-17 18:09 44.138028 -68.370528 44 35008ft 544kts
02-Dec-17 18:10 44.237549 -68.216453 45 35000ft 544kts
02-Dec-17 18:11 44.336918 -68.059976 44 35000ft 523kts
02-Dec-17 18:12 44.432660 -67.908987 44 35010ft 529kts
02-Dec-17 18:13 44.529801 -67.755392 44 35006ft 529kts
02-Dec-17 18:14 44.626115 -67.601822 44 34977ft 528kts
02-Dec-17 18:15 44.722535 -67.447337 44 34731ft 527kts
02-Dec-17 18:16 44.818349 -67.292813 45 34677ft 527kts
02-Dec-17 18:17 44.914750 -67.138196 40 34678ft 524kts
02-Dec-17 18:18 45.022263 -67.003325 35 34991ft 526kts
02-Dec-17 18:19 45.135083 -66.870697 35 34992ft 530kts
02-Dec-17 18:20 45.246909 -66.734920 36 34994ft 531kts
02-Dec-17 18:21 45.357543 -66.597473 36 34996ft 531kts
02-Dec-17 18:22 45.467662 -66.459684 36 35108ft 530kts
02-Dec-17 18:23 45.577897 -66.321336 37 35307ft 530kts
02-Dec-17 18:24 45.687173 -66.182030 37 35314ft 530kts
02-Dec-17 18:25 45.796228 -66.043049 37 35313ft 528kts
02-Dec-17 18:26 45.906269 -65.902860 37 35318ft 529kts
02-Dec-17 18:27 46.015379 -65.763071 37 35316ft 529kts
02-Dec-17 18:28 46.122970 -65.624330 37 35292ft 529kts
02-Dec-17 18:29 46.232440 -65.483979 37 35294ft 529kts
02-Dec-17 18:30 46.341413 -65.342595 38 35293ft 529kts
02-Dec-17 18:31 46.447081 -65.202562 38 35287ft 530kts
02-Dec-17 18:32 46.554595 -65.059896 38 35288ft 529kts
02-Dec-17 18:33 46.662757 -64.916583 38 35169ft 530kts
02-Dec-17 18:34 46.771371 -64.771921 38 34996ft 530kts
02-Dec-17 18:35 46.879928 -64.626308 38 34996ft 530kts
02-Dec-17 18:36 46.988021 -64.480435 38 34997ft 529kts
02-Dec-17 18:37 47.094990 -64.335281 39 34994ft 530kts
02-Dec-17 18:38 47.202538 -64.188612 39 34989ft 530kts
02-Dec-17 18:39 47.308573 -64.043482 39 34991ft 530kts
02-Dec-17 18:40 47.416086 -63.895095 39 34992ft 530kts
02-Dec-17 18:41 47.523322 -63.746098 39 34994ft 531kts
02-Dec-17 18:42 47.629763 -63.597459 39 34996ft 531kts
02-Dec-17 18:43 47.736566 -63.447443 39 34998ft 531kts
02-Dec-17 18:44 47.843159 -63.296589 40 34990ft 532kts
02-Dec-17 18:45 47.949295 -63.144124 40 34992ft 531kts
02-Dec-17 18:46 48.056061 -62.991025 40 34993ft 532kts
02-Dec-17 18:47 48.160903 -62.841055 40 34992ft 532kts
02-Dec-17 18:48 48.266341 -62.690208 40 34994ft 532kts
02-Dec-17 18:49 48.372547 -62.535748 40 34995ft 532kts
02-Dec-17 18:50 48.477923 -62.381101 40 34997ft 532kts
02-Dec-17 18:51 48.583428 -62.224571 41 34990ft 533kts
02-Dec-17 18:52 48.688452 -62.067694 41 34992ft 533kts
02-Dec-17 18:53 48.793959 -61.910207 41 34993ft 533kts
02-Dec-17 18:54 48.899221 -61.752273 41 34995ft 533kts
02-Dec-17 18:55 49.004869 -61.592608 43 35001ft 543kts
02-Dec-17 18:56 49.108772 -61.434435 43 34997ft 542kts
02-Dec-17 18:57 49.214884 -61.273495 44 34988ft 542kts
02-Dec-17 18:58 49.320762 -61.110023 44 34989ft 542kts
02-Dec-17 18:59 49.425960 -60.946420 44 34997ft 542kts
02-Dec-17 19:00 49.531090 -60.782352 44 34993ft 542kts
02-Dec-17 19:01 49.636426 -60.616972 44 35054ft 541kts
02-Dec-17 19:02 49.741312 -60.451075 44 35292ft 541kts
02-Dec-17 19:03 49.843581 -60.287961 45 35143ft 541kts
02-Dec-17 19:04 49.947429 -60.120097 45 34995ft 541kts
02-Dec-17 19:05 50.051191 -59.952424 45 34997ft 542kts
02-Dec-17 19:06 50.155703 -59.783686 44 34991ft 541kts
02-Dec-17 19:07 50.259626 -59.615968 45 34992ft 541kts
02-Dec-17 19:08 50.363225 -59.445636 45 34994ft 541kts
02-Dec-17 19:09 50.465456 -59.275695 46 34990ft 541kts
02-Dec-17 19:10 50.568175 -59.102863 45 34995ft 540kts
02-Dec-17 19:11 50.669901 -58.931792 46 34993ft 537kts
02-Dec-17 19:12 50.771461 -58.760300 45 34995ft 537kts
02-Dec-17 19:13 50.871746 -58.589574 46 34997ft 537kts
02-Dec-17 19:14 50.972591 -58.416652 46 34999ft 537kts
02-Dec-17 19:15 51.072075 -58.244315 47 34994ft 537kts
02-Dec-17 19:16 51.170822 -58.072779 46 35157ft 537kts
02-Dec-17 19:17 51.271757 -57.897987 46 35234ft 537kts
02-Dec-17 19:18 51.371834 -57.721821 46 35236ft 537kts
02-Dec-17 19:19 51.471322 -57.545009 46 35238ft 537kts
02-Dec-17 19:20 51.569659 -57.369237 46 35239ft 537kts
02-Dec-17 19:21 51.667997 -57.191312 48 35235ft 537kts
02-Dec-17 19:22 51.765505 -57.013675 47 35237ft 537kts
02-Dec-17 19:23 51.864208 -56.833618 47 35239ft 537kts
02-Dec-17 19:24 51.962634 -56.652864 47 35267ft 537kts
02-Dec-17 19:25 52.060781 -56.471095 47 35269ft 537kts
02-Dec-17 19:26 52.159069 -56.288590 48 35258ft 537kts
02-Dec-17 19:27 52.256668 -56.105860 48 35259ft 537kts
02-Dec-17 19:28 52.353807 -55.921602 48 35261ft 537kts
02-Dec-17 19:29 52.440210 -55.725752 62 35265ft 537kts
02-Dec-17 19:30 52.503575 -55.507567 66 35265ft 536kts
02-Dec-17 19:31 52.567150 -55.286495 65 35260ft 536kts
02-Dec-17 19:32 52.633275 -55.066307 64 35262ft 537kts
02-Dec-17 19:33 52.699281 -54.846492 64 35264ft 537kts
02-Dec-17 19:34 52.764558 -54.626098 64 35266ft 537kts
02-Dec-17 19:35 52.829597 -54.404095 64 35268ft 537kts
02-Dec-17 19:36 52.893765 -54.182359 65 35264ft 536kts
02-Dec-17 19:37 52.957535 -53.959682 65 35266ft 536kts
02-Dec-17 19:38 53.019884 -53.740984 65 35267ft 536kts
02-Dec-17 19:39 53.083238 -53.516830 65 35269ft 536kts
02-Dec-17 19:40 53.146698 -53.292748 66 35257ft 536kts
02-Dec-17 19:41 53.209505 -53.068431 66 35259ft 536kts
02-Dec-17 19:42 53.271382 -52.842514 66 35261ft 536kts
02-Dec-17 19:43 53.332717 -52.616258 66 35263ft 536kts
02-Dec-17 19:44 53.393865 -52.388972 66 35265ft 536kts
02-Dec-17 19:45 53.453804 -52.163154 67 35261ft 536kts
02-Dec-17 19:46 53.513866 -51.934272 67 35262ft 536kts
02-Dec-17 19:47 53.573609 -51.705430 67 35264ft 536kts
02-Dec-17 19:48 53.632772 -51.476667 67 35266ft 536kts
02-Dec-17 19:49 53.691546 -51.246449 68 35262ft 536kts
02-Dec-17 19:50 53.749622 -51.015608 68 35264ft 536kts
02-Dec-17 19:51 53.807707 -50.783691 68 35266ft 536kts
02-Dec-17 19:52 53.865217 -50.552034 68 35267ft 536kts
02-Dec-17 19:53 53.922411 -50.318862 69 35266ft 535kts
02-Dec-17 19:54 53.978789 -50.085813 69 35266ft 535kts
02-Dec-17 19:55 54.035994 -49.852781 68 35268ft 536kts
02-Dec-17 19:56 54.094214 -49.619724 68 35270ft 536kts
02-Dec-17 19:57 54.153020 -49.387106 67 35264ft 536kts
02-Dec-17 19:58 54.210877 -49.153335 69 35260ft 536kts
02-Dec-17 19:59 54.267390 -48.918561 69 35261ft 535kts
02-Dec-17 20:00 54.323741 -48.682650 69 35263ft 535kts
02-Dec-17 20:01 54.379810 -48.446008 70 35258ft 545kts
02-Dec-17 20:02 54.435998 -48.205482 71 35261ft 550kts
02-Dec-17 20:03 54.492324 -47.960999 71 35263ft 551kts
02-Dec-17 20:04 54.548338 -47.716157 72 35263ft 558kts
02-Dec-17 20:05 54.604085 -47.469859 73 35268ft 553kts
02-Dec-17 20:06 54.659082 -47.223577 74 35264ft 551kts
02-Dec-17 20:07 54.713420 -46.976230 74 35266ft 551kts
02-Dec-17 20:08 54.767410 -46.728672 74 35269ft 551kts
02-Dec-17 20:09 54.821069 -46.480003 74 35209ft 552kts
02-Dec-17 20:10 54.874272 -46.229941 75 35195ft 553kts
02-Dec-17 20:11 54.926542 -45.980553 75 35189ft 551kts
02-Dec-17 20:12 54.978296 -45.731190 75 35191ft 551kts
02-Dec-17 20:13 55.029707 -45.480836 75 35194ft 551kts
02-Dec-17 20:14 55.080667 -45.228881 76 35190ft 550kts
02-Dec-17 20:15 55.122735 -45.019607 75 35176ft 551kts
02-Dec-17 20:16 55.182463 -44.725287 75 35178ft 551kts
02-Dec-17 20:17 55.223845 -44.514208 76 35180ft 551kts
02-Dec-17 20:18 55.280564 -44.218486 77 35174ft 551kts
02-Dec-17 20:19 55.328732 -43.963561 77 35180ft 550kts
02-Dec-17 20:20 55.368580 -43.751018 76 35181ft 550kts
02-Dec-17 20:21 55.423606 -43.453797 76 35183ft 550kts
02-Dec-17 20:22 55.462530 -43.240416 77 35178ft 549kts
02-Dec-17 20:23 55.508406 -42.984682 77 35181ft 549kts
02-Dec-17 20:24 55.554113 -42.727034 78 35184ft 555kts
02-Dec-17 20:25 55.599206 -42.470089 77 35187ft 549kts
02-Dec-17 20:26 55.643712 -42.211951 78 35182ft 548kts
02-Dec-17 20:27 55.687515 -41.953480 78 35184ft 548kts
02-Dec-17 20:28 55.730816 -41.695281 78 35187ft 548kts
02-Dec-17 20:29 55.773743 -41.435734 78 35189ft 548kts
02-Dec-17 20:30 55.816022 -41.175786 79 35185ft 548kts
02-Dec-17 20:31 55.857637 -40.915256 79 35188ft 548kts
02-Dec-17 20:32 55.898787 -40.654814 79 35190ft 548kts
02-Dec-17 20:33 55.939530 -40.393182 79 35192ft 548kts
02-Dec-17 20:34 55.979477 -40.132424 80 35188ft 547kts
02-Dec-17 20:35 56.026003 -39.873913 71 35191ft 554kts
02-Dec-17 20:36 56.090987 -39.623372 68 35193ft 556kts
02-Dec-17 20:37 56.156793 -39.372843 69 35180ft 556kts
02-Dec-17 20:38 56.218964 -39.120607 71 35176ft 554kts
02-Dec-17 20:39 56.279712 -38.866112 71 35178ft 554kts
02-Dec-17 20:40 56.340388 -38.611088 71 35181ft 554kts
02-Dec-17 20:41 56.400735 -38.355291 71 35184ft 554kts
02-Dec-17 20:42 56.459133 -38.103712 72 35180ft 554kts
02-Dec-17 20:43 56.518121 -37.846405 72 35182ft 554kts
02-Dec-17 20:44 56.576580 -37.589279 72 35185ft 554kts
02-Dec-17 20:45 56.634580 -37.331100 73 35186ft 553kts
02-Dec-17 20:46 56.691704 -37.072559 73 35184ft 553kts
02-Dec-17 20:47 56.748507 -36.812433 73 35186ft 553kts
02-Dec-17 20:48 56.804895 -36.551841 73 35189ft 553kts
02-Dec-17 20:49 56.860458 -36.291760 74 35185ft 552kts
02-Dec-17 20:50 56.915294 -36.030590 74 35188ft 552kts
02-Dec-17 20:51 56.969904 -35.767660 74 35190ft 552kts
02-Dec-17 20:52 57.024093 -35.504036 74 35193ft 552kts
02-Dec-17 20:53 57.077626 -35.239885 74 35182ft 554kts
02-Dec-17 20:54 57.132034 -34.969310 70 35177ft 569kts
02-Dec-17 20:55 57.187249 -34.696256 71 35181ft 569kts
02-Dec-17 20:56 57.240299 -34.424385 71 35184ft 569kts
02-Dec-17 20:57 57.292817 -34.148984 72 35177ft 569kts
02-Dec-17 20:58 57.344781 -33.872932 72 35181ft 569kts
02-Dec-17 20:59 57.396282 -33.597042 72 35184ft 569kts
02-Dec-17 21:00 57.447363 -33.319124 73 35181ft 569kts
02-Dec-17 21:01 57.497252 -33.042054 73 35180ft 569kts
02-Dec-17 21:02 57.546947 -32.762771 72 35184ft 569kts
02-Dec-17 21:03 57.596058 -32.483424 72 35187ft 569kts
02-Dec-17 21:04 57.644495 -32.203201 73 35181ft 569kts
02-Dec-17 21:05 57.691513 -31.925695 72 35150ft 554kts
02-Dec-17 21:06 57.737785 -31.649693 72 35132ft 557kts
02-Dec-17 21:07 57.783565 -31.372863 72 35135ft 557kts
02-Dec-17 21:08 57.828331 -31.096312 73 35128ft 557kts
02-Dec-17 21:09 57.872866 -30.817198 73 35130ft 556kts
02-Dec-17 21:10 57.916838 -30.538037 73 35134ft 558kts
02-Dec-17 21:11 57.960120 -30.258865 74 35127ft 558kts
02-Dec-17 21:12 58.001334 -29.977447 79 35131ft 557kts
02-Dec-17 21:13 58.016017 -29.687681 89 35134ft 555kts
02-Dec-17 21:14 58.021444 -29.397573 86 35126ft 560kts
02-Dec-17 21:15 58.030423 -29.105765 88 35132ft 556kts
02-Dec-17 21:16 58.040003 -28.815517 88 35132ft 556kts
02-Dec-17 21:17 58.048515 -28.524061 88 35135ft 556kts
02-Dec-17 21:18 58.056034 -28.236931 89 35128ft 556kts
02-Dec-17 21:19 58.063070 -27.944941 89 35131ft 557kts
02-Dec-17 21:20 58.069491 -27.653874 89 35133ft 557kts
02-Dec-17 21:21 58.075221 -27.361670 89 35136ft 557kts
02-Dec-17 21:22 58.080248 -27.069459 90 35129ft 557kts
02-Dec-17 21:23 58.084713 -26.776257 90 35133ft 556kts
02-Dec-17 21:24 58.088420 -26.484656 90 35135ft 557kts
02-Dec-17 21:25 58.091437 -26.191943 91 35129ft 557kts
02-Dec-17 21:26 58.093836 -25.900120 91 35131ft 557kts
02-Dec-17 21:27 58.095599 -25.607121 90 35134ft 558kts
02-Dec-17 21:28 58.096607 -25.313854 89 35122ft 565kts
02-Dec-17 21:29 58.097041 -25.020717 91 35131ft 558kts
02-Dec-17 21:30 58.096741 -24.728469 91 35133ft 558kts
02-Dec-17 21:31 58.095758 -24.435368 91 35136ft 558kts
02-Dec-17 21:32 58.094130 -24.143509 92 35129ft 558kts
02-Dec-17 21:33 58.091889 -23.850500 92 35131ft 558kts
02-Dec-17 21:34 58.088909 -23.558289 92 35134ft 558kts
02-Dec-17 21:35 58.085233 -23.265323 93 35127ft 558kts
02-Dec-17 21:36 58.080956 -22.972594 93 35130ft 558kts
02-Dec-17 21:37 58.076044 -22.680145 93 35135ft 557kts
02-Dec-17 21:38 58.070354 -22.387520 93 35136ft 558kts
02-Dec-17 21:39 58.064022 -22.095050 94 35129ft 558kts
02-Dec-17 21:40 58.057094 -21.802739 94 35132ft 558kts
02-Dec-17 21:41 58.049475 -21.511529 94 35135ft 558kts
02-Dec-17 21:42 58.041128 -21.219382 95 35128ft 557kts
02-Dec-17 21:43 58.032220 -20.927543 95 35130ft 558kts
02-Dec-17 21:44 58.022661 -20.636666 95 35133ft 558kts
02-Dec-17 21:45 58.012358 -20.345069 96 35136ft 557kts
02-Dec-17 21:46 58.001679 -20.053860 97 35128ft 557kts
02-Dec-17 21:47 57.966561 -19.773888 113 35133ft 548kts
02-Dec-17 21:48 57.912623 -19.505900 114 35134ft 548kts
02-Dec-17 21:49 57.861826 -19.237004 113 35127ft 548kts
02-Dec-17 21:50 57.812947 -18.966026 113 35332ft 548kts
02-Dec-17 21:51 57.763085 -18.696920 113 35348ft 548kts
02-Dec-17 21:52 57.712158 -18.428378 113 35350ft 548kts
02-Dec-17 21:53 57.661701 -18.164837 114 35343ft 547kts
02-Dec-17 21:54 57.610196 -17.898500 114 35345ft 547kts
02-Dec-17 21:55 57.557653 -17.632588 114 35348ft 547kts
02-Dec-17 21:56 57.504655 -17.367294 114 35350ft 547kts
02-Dec-17 21:57 57.451607 -17.103696 114 35338ft 549kts
02-Dec-17 21:58 57.396362 -16.833925 111 35345ft 562kts
02-Dec-17 21:59 57.340390 -16.564682 108 35360ft 547kts
02-Dec-17 22:00 57.286716 -16.310137 108 35347ft 535kts
02-Dec-17 22:01 57.232599 -16.054604 108 35346ft 534kts
02-Dec-17 22:02 57.177844 -15.800665 108 35348ft 535kts
02-Dec-17 22:03 57.122201 -15.546447 108 35350ft 535kts
02-Dec-17 22:04 57.066384 -15.294357 109 35345ft 536kts
02-Dec-17 22:05 57.009801 -15.040861 107 35350ft 533kts
02-Dec-17 22:06 56.983347 -14.777594 88 35352ft 524kts
02-Dec-17 22:07 56.977120 -14.511453 88 35352ft 524kts
02-Dec-17 22:08 56.964527 -14.246605 92 35382ft 528kts
02-Dec-17 22:09 56.948652 -13.980643 93 36909ft 524kts
02-Dec-17 22:10 56.925362 -13.719310 97 37335ft 530kts
02-Dec-17 22:11 56.898250 -13.458067 96 37352ft 524kts
02-Dec-17 22:12 56.870461 -13.198175 97 37340ft 524kts
02-Dec-17 22:13 56.843060 -12.936761 97 37341ft 524kts
02-Dec-17 22:14 56.815711 -12.675744 97 37342ft 524kts
02-Dec-17 22:15 56.787775 -12.415485 97 37344ft 524kts
02-Dec-17 22:16 56.759110 -12.154405 98 37322ft 531kts
02-Dec-17 22:17 56.729940 -11.893853 98 37344ft 525kts
02-Dec-17 22:18 56.700274 -11.634216 98 37344ft 525kts
02-Dec-17 22:19 56.669998 -11.374713 98 37345ft 525kts
02-Dec-17 22:20 56.639157 -11.114950 98 37342ft 526kts
02-Dec-17 22:21 56.607848 -10.855779 99 37344ft 526kts
02-Dec-17 22:22 56.575790 -10.596209 99 37370ft 531kts
02-Dec-17 22:23 56.543170 -10.336826 99 37347ft 536kts
02-Dec-17 22:24 56.509943 -10.076658 99 37343ft 536kts
02-Dec-17 22:25 56.466756 -9.819746 108 37346ft 539kts
02-Dec-17 22:26 56.410973 -9.568897 109 37351ft 540kts
02-Dec-17 22:27 56.356533 -9.319777 108 37372ft 539kts
02-Dec-17 22:28 56.302866 -9.067774 109 37368ft 544kts
02-Dec-17 22:29 56.248319 -8.815818 108 37376ft 539kts
02-Dec-17 22:30 56.193144 -8.565686 108 37377ft 539kts
02-Dec-17 22:31 56.138416 -8.320614 109 37375ft 539kts
02-Dec-17 22:32 56.091942 -8.113436 109 37374ft 539kts
02-Dec-17 22:33 56.026258 -7.824660 109 37389ft 530kts
02-Dec-17 22:34 55.970843 -7.585226 109 37379ft 524kts
02-Dec-17 22:35 55.924062 -7.384341 108 37376ft 526kts
02-Dec-17 22:36 55.867570 -7.146239 110 37367ft 527kts
02-Dec-17 22:37 55.799994 -6.868127 109 37342ft 527kts
02-Dec-17 22:38 55.742320 -6.629543 109 37343ft 527kts
02-Dec-17 22:39 55.694093 -6.431327 109 37344ft 527kts
02-Dec-17 22:40 55.626127 -6.154882 110 37342ft 528kts
02-Dec-17 22:41 55.576964 -5.956757 110 37355ft 528kts
02-Dec-17 22:42 55.517321 -5.719758 110 37403ft 529kts
02-Dec-17 22:43 55.457679 -5.485555 110 37401ft 529kts
02-Dec-17 22:44 55.397391 -5.250647 111 37398ft 529kts
02-Dec-17 22:45 55.336490 -5.014923 111 37347ft 529kts
02-Dec-17 22:46 55.275360 -4.781889 111 37347ft 529kts
02-Dec-17 22:47 55.213471 -4.548753 111 37349ft 529kts
02-Dec-17 22:48 55.151528 -4.317711 112 37347ft 530kts
02-Dec-17 22:49 55.089016 -4.085455 112 37348ft 530kts
02-Dec-17 22:50 55.025807 -3.853794 112 37350ft 528kts
02-Dec-17 22:51 54.962209 -3.623717 112 37272ft 528kts
02-Dec-17 22:52 54.898556 -3.395738 112 37271ft 528kts
02-Dec-17 22:53 54.835964 -3.176916 113 37260ft 528kts
02-Dec-17 22:54 54.770870 -2.949900 113 37287ft 527kts
02-Dec-17 22:55 54.705884 -2.723264 112 37288ft 526kts
02-Dec-17 22:56 54.640587 -2.497806 112 37264ft 526kts
02-Dec-17 22:57 54.575462 -2.275439 113 37255ft 513kts
02-Dec-17 22:58 54.510588 -2.054581 113 37263ft 517kts
02-Dec-17 22:59 54.445707 -1.836684 113 37264ft 517kts
02-Dec-17 23:00 54.380225 -1.619355 113 37265ft 517kts
02-Dec-17 23:01 54.313819 -1.400872 113 37266ft 517kts
02-Dec-17 23:02 54.247307 -1.183092 114 37291ft 517kts
02-Dec-17 23:03 54.180529 -0.966552 114 37288ft 517kts
02-Dec-17 23:04 54.112992 -0.750525 114 37291ft 517kts
02-Dec-17 23:05 54.045200 -0.535873 114 37269ft 517kts
02-Dec-17 23:06 53.974108 -0.323249 117 37268ft 518kts
02-Dec-17 23:07 53.900232 -0.113591 117 37269ft 519kts
02-Dec-17 23:08 53.825365 0.093975 118 37260ft 519kts
02-Dec-17 23:09 53.750433 0.302047 117 37261ft 519kts
02-Dec-17 23:10 53.675787 0.509874 117 37262ft 519kts
02-Dec-17 23:11 53.600883 0.716796 117 37258ft 514kts
02-Dec-17 23:12 53.526576 0.921193 117 37262ft 515kts
02-Dec-17 23:13 53.451690 1.124642 117 37264ft 515kts
02-Dec-17 23:14 53.376138 1.327760 117 37265ft 515kts
02-Dec-17 23:15 53.300442 1.529676 117 37266ft 515kts
02-Dec-17 23:16 53.226146 1.726523 118 37269ft 505kts
02-Dec-17 23:17 53.151575 1.923771 118 37267ft 506kts
02-Dec-17 23:18 53.075956 2.121033 118 37216ft 506kts
02-Dec-17 23:19 52.998514 2.321334 124 37217ft 525kts
02-Dec-17 23:20 52.922554 2.516366 128 37201ft 485kts
02-Dec-17 23:21 52.846966 2.705901 125 37208ft 514kts
02-Dec-17 23:22 52.768510 2.903583 119 37206ft 509kts
02-Dec-17 23:23 52.702523 3.101471 106 37211ft 488kts
02-Dec-17 23:24 52.658279 3.311032 104 37207ft 486kts
02-Dec-17 23:25 52.609676 3.518720 106 37208ft 488kts
02-Dec-17 23:26 52.559456 3.723597 107 37238ft 487kts
02-Dec-17 23:27 52.509552 3.930103 106 37209ft 487kts
02-Dec-17 23:28 52.460230 4.132287 107 37209ft 487kts
02-Dec-17 23:29 52.411127 4.330907 107 37210ft 487kts
02-Dec-17 23:30 52.360006 4.535688 107 37210ft 487kts
02-Dec-17 23:31 52.310289 4.733729 107 37236ft 487kts
02-Dec-17 23:32 52.260859 4.929608 107 37239ft 487kts
02-Dec-17 23:33 52.209510 5.129875 108 37239ft 485kts
02-Dec-17 23:34 52.157387 5.331126 107 37239ft 485kts
02-Dec-17 23:35 52.113571 5.536645 102 37240ft 481kts
02-Dec-17 23:36 52.073733 5.739833 103 37241ft 482kts
02-Dec-17 23:37 52.033448 5.934571 103 37241ft 481kts
02-Dec-17 23:38 51.990576 6.137129 103 37242ft 481kts
02-Dec-17 23:39 51.930044 6.328583 129 37250ft 498kts
02-Dec-17 23:40 51.830046 6.459271 135 37232ft 502kts
02-Dec-17 23:41 51.733442 6.607532 129 37256ft 498kts
02-Dec-17 23:42 51.637422 6.761420 131 37261ft 499kts
02-Dec-17 23:43 51.543242 6.904834 132 37285ft 500kts
02-Dec-17 23:44 51.435401 7.029618 149 37295ft 511kts
02-Dec-17 23:45 51.306782 7.122382 151 37098ft 517kts
02-Dec-17 23:46 51.177897 7.220072 147 34149ft 519kts
02-Dec-17 23:47 51.053421 7.328467 143 31515ft 511kts
02-Dec-17 23:48 50.933787 7.447289 142 29334ft 520kts
02-Dec-17 23:49 50.817052 7.561545 143 27148ft 526kts
02-Dec-17 23:50 50.692493 7.661368 154 24906ft 537kts
02-Dec-17 23:51 50.567563 7.737468 154 22721ft 503kts
02-Dec-17 23:52 50.453254 7.813594 148 20713ft 474kts
02-Dec-17 23:53 50.365339 7.938469 120 18794ft 424kts
02-Dec-17 23:54 50.298024 8.078156 123 17034ft 417kts
02-Dec-17 23:55 50.251903 8.227250 89 15315ft 389kts
02-Dec-17 23:56 50.257977 8.388003 79 13690ft 378kts
02-Dec-17 23:57 50.265907 8.543901 82 12110ft 374kts
02-Dec-17 23:58 50.270886 8.688265 83 11046ft 345kts
02-Dec-17 23:59 50.269661 8.825267 106 10118ft 316kts
03-Dec-17 00:00 50.205775 8.912165 160 6917ft 312kts
03-Dec-17 00:01 50.134998 8.920200 213 5288ft 229kts
03-Dec-17 00:02 50.105250 8.859729 249 4677ft 156kts
03-Dec-17 00:03 50.090128 8.796529 248 3424ft 163kts
03-Dec-17 00:04 50.075328 8.734419 248 2402ft 153kts
03-Dec-17 00:05 50.061157 8.675586 248 1624ft 153kts
03-Dec-17 00:06 50.046998 8.615438 248 801ft 145kts
03-Dec-17 00:07 50.034246 8.562265 250 378ft 97kts
03-Dec-17 00:08 50.032407 8.545552 310 378ft 20kts
03-Dec-17 00:09 50.036913 8.544554 70 378ft 19kts
03-Dec-17 00:10 50.038797 8.552478 70 378ft 19kts
03-Dec-17 00:11 50.040608 8.560063 70 378ft 20kts
03-Dec-17 00:12 50.042894 8.566079 338 378ft 16kts
03-Dec-17 00:13 50.043002 8.559756 294 378ft 18kts
03-Dec-17 00:14 50.046076 8.561991 76 378ft 15kts
03-Dec-17 00:15 50.047515 8.563870 340 378ft 0kts
03-Dec-17 00:16 50.047515 8.563870 340 378ft 0kts
03-Dec-17 00:17 50.047515 8.563870 340 378ft 0kts
03-Dec-17 00:18 50.047515 8.563870 340 378ft 0kts
03-Dec-17 00:19 50.047515 8.563870 340 378ft 0kts
03-Dec-17 00:20 50.047515 8.563870 340 378ft 0kts
03-Dec-17 00:21 50.047515 8.563870 340 378ft 0kts
03-Dec-17 00:22 50.047515 8.563870 340 378ft 0kts

Navigation Log

Ident Type
Flight plan parsing failed, navigation log unavailable